sensor_id;sensor_type;location;lat;lon;timestamp;temperature;humidity
25214;DHT22;13160;51.834;4.706;2023-06-10T00:00:09;22.40;88.30
25214;DHT22;13160;51.834;4.706;2023-06-10T00:02:43;22.40;88.40
25214;DHT22;13160;51.834;4.706;2023-06-10T00:05:12;22.40;88.50
25214;DHT22;13160;51.834;4.706;2023-06-10T00:07:40;22.30;88.50
25214;DHT22;13160;51.834;4.706;2023-06-10T00:10:09;22.30;88.70
25214;DHT22;13160;51.834;4.706;2023-06-10T00:12:38;22.30;88.70
25214;DHT22;13160;51.834;4.706;2023-06-10T00:15:08;22.20;88.70
25214;DHT22;13160;51.834;4.706;2023-06-10T00:17:38;22.20;89.00
25214;DHT22;13160;51.834;4.706;2023-06-10T00:20:11;22.10;89.10
25214;DHT22;13160;51.834;4.706;2023-06-10T00:22:40;22.10;89.50
25214;DHT22;13160;51.834;4.706;2023-06-10T00:25:12;22.10;89.70
25214;DHT22;13160;51.834;4.706;2023-06-10T00:27:41;22.00;89.90
25214;DHT22;13160;51.834;4.706;2023-06-10T00:30:11;22.00;90.00
25214;DHT22;13160;51.834;4.706;2023-06-10T00:32:40;21.90;90.10
25214;DHT22;13160;51.834;4.706;2023-06-10T00:35:10;21.90;90.20
25214;DHT22;13160;51.834;4.706;2023-06-10T00:37:39;21.90;90.40
25214;DHT22;13160;51.834;4.706;2023-06-10T00:40:08;21.80;90.40
25214;DHT22;13160;51.834;4.706;2023-06-10T00:42:38;21.80;90.50
25214;DHT22;13160;51.834;4.706;2023-06-10T00:45:06;21.70;90.60
25214;DHT22;13160;51.834;4.706;2023-06-10T00:47:36;21.70;90.70
25214;DHT22;13160;51.834;4.706;2023-06-10T00:50:06;21.70;90.80
25214;DHT22;13160;51.834;4.706;2023-06-10T00:52:36;21.70;90.90
25214;DHT22;13160;51.834;4.706;2023-06-10T00:55:05;21.60;90.90
25214;DHT22;13160;51.834;4.706;2023-06-10T00:57:36;21.60;91.10
25214;DHT22;13160;51.834;4.706;2023-06-10T01:00:06;21.60;91.20
25214;DHT22;13160;51.834;4.706;2023-06-10T01:02:37;21.50;91.40
25214;DHT22;13160;51.834;4.706;2023-06-10T01:05:06;21.50;91.50
25214;DHT22;13160;51.834;4.706;2023-06-10T01:07:39;21.40;91.60
25214;DHT22;13160;51.834;4.706;2023-06-10T01:10:18;21.40;91.60
25214;DHT22;13160;51.834;4.706;2023-06-10T01:12:55;21.30;91.70
25214;DHT22;13160;51.834;4.706;2023-06-10T01:15:30;21.30;91.80
25214;DHT22;13160;51.834;4.706;2023-06-10T01:18:01;21.20;91.80
25214;DHT22;13160;51.834;4.706;2023-06-10T01:20:32;21.20;91.90
25214;DHT22;13160;51.834;4.706;2023-06-10T01:23:02;21.20;92.00
25214;DHT22;13160;51.834;4.706;2023-06-10T01:25:31;21.10;92.00
25214;DHT22;13160;51.834;4.706;2023-06-10T01:28:07;21.10;92.10
25214;DHT22;13160;51.834;4.706;2023-06-10T01:30:41;21.00;92.10
25214;DHT22;13160;51.834;4.706;2023-06-10T01:33:16;21.00;92.20
25214;DHT22;13160;51.834;4.706;2023-06-10T01:35:47;20.90;92.30
25214;DHT22;13160;51.834;4.706;2023-06-10T01:38:19;20.90;92.40
25214;DHT22;13160;51.834;4.706;2023-06-10T01:40:49;20.90;92.50
25214;DHT22;13160;51.834;4.706;2023-06-10T01:43:19;20.80;92.60
25214;DHT22;13160;51.834;4.706;2023-06-10T01:45:48;20.70;92.60
25214;DHT22;13160;51.834;4.706;2023-06-10T01:48:17;20.70;92.70
25214;DHT22;13160;51.834;4.706;2023-06-10T01:50:45;20.70;92.80
25214;DHT22;13160;51.834;4.706;2023-06-10T01:53:14;20.60;92.90
25214;DHT22;13160;51.834;4.706;2023-06-10T01:55:44;20.60;93.00
25214;DHT22;13160;51.834;4.706;2023-06-10T01:58:12;20.60;93.10
25214;DHT22;13160;51.834;4.706;2023-06-10T02:00:41;20.50;93.20
25214;DHT22;13160;51.834;4.706;2023-06-10T02:03:10;20.50;93.20
25214;DHT22;13160;51.834;4.706;2023-06-10T02:05:39;20.50;93.30
25214;DHT22;13160;51.834;4.706;2023-06-10T02:08:07;20.40;93.40
25214;DHT22;13160;51.834;4.706;2023-06-10T02:10:36;20.40;93.50
25214;DHT22;13160;51.834;4.706;2023-06-10T02:13:07;20.40;93.50
25214;DHT22;13160;51.834;4.706;2023-06-10T02:15:36;20.40;93.60
25214;DHT22;13160;51.834;4.706;2023-06-10T02:18:04;20.30;93.70
25214;DHT22;13160;51.834;4.706;2023-06-10T02:20:33;20.30;93.80
25214;DHT22;13160;51.834;4.706;2023-06-10T02:23:02;20.30;93.80
25214;DHT22;13160;51.834;4.706;2023-06-10T02:25:30;20.30;93.90
25214;DHT22;13160;51.834;4.706;2023-06-10T02:27:59;20.20;94.00
25214;DHT22;13160;51.834;4.706;2023-06-10T02:30:29;20.20;94.10
25214;DHT22;13160;51.834;4.706;2023-06-10T02:32:58;20.10;94.20
25214;DHT22;13160;51.834;4.706;2023-06-10T02:35:26;20.10;94.30
25214;DHT22;13160;51.834;4.706;2023-06-10T02:37:54;20.00;94.40
25214;DHT22;13160;51.834;4.706;2023-06-10T02:40:23;20.00;94.40
25214;DHT22;13160;51.834;4.706;2023-06-10T02:42:51;20.00;94.50
25214;DHT22;13160;51.834;4.706;2023-06-10T02:45:20;20.00;94.60
25214;DHT22;13160;51.834;4.706;2023-06-10T02:47:50;20.00;94.70
25214;DHT22;13160;51.834;4.706;2023-06-10T02:50:19;20.00;94.80
25214;DHT22;13160;51.834;4.706;2023-06-10T02:52:48;19.90;94.90
25214;DHT22;13160;51.834;4.706;2023-06-10T02:55:17;19.90;95.00
25214;DHT22;13160;51.834;4.706;2023-06-10T02:57:45;19.90;95.00
25214;DHT22;13160;51.834;4.706;2023-06-10T03:00:15;19.90;95.10
25214;DHT22;13160;51.834;4.706;2023-06-10T03:02:44;19.80;95.20
25214;DHT22;13160;51.834;4.706;2023-06-10T03:05:15;19.80;95.30
25214;DHT22;13160;51.834;4.706;2023-06-10T03:07:44;19.80;95.30
25214;DHT22;13160;51.834;4.706;2023-06-10T03:10:15;19.80;95.40
25214;DHT22;13160;51.834;4.706;2023-06-10T03:12:45;19.80;95.50
25214;DHT22;13160;51.834;4.706;2023-06-10T03:15:13;19.70;95.50
25214;DHT22;13160;51.834;4.706;2023-06-10T03:17:42;19.70;95.60
25214;DHT22;13160;51.834;4.706;2023-06-10T03:20:12;19.70;95.60
25214;DHT22;13160;51.834;4.706;2023-06-10T03:22:44;19.60;95.70
25214;DHT22;13160;51.834;4.706;2023-06-10T03:25:12;19.60;95.70
25214;DHT22;13160;51.834;4.706;2023-06-10T03:27:42;19.60;95.80
25214;DHT22;13160;51.834;4.706;2023-06-10T03:30:12;19.60;95.90
25214;DHT22;13160;51.834;4.706;2023-06-10T03:32:41;19.60;96.00
25214;DHT22;13160;51.834;4.706;2023-06-10T03:35:10;19.50;96.00
25214;DHT22;13160;51.834;4.706;2023-06-10T03:37:40;19.50;96.10
25214;DHT22;13160;51.834;4.706;2023-06-10T03:40:09;19.50;96.10
25214;DHT22;13160;51.834;4.706;2023-06-10T03:42:38;19.50;96.20
25214;DHT22;13160;51.834;4.706;2023-06-10T03:45:07;19.40;96.20
25214;DHT22;13160;51.834;4.706;2023-06-10T03:47:37;19.40;96.30
25214;DHT22;13160;51.834;4.706;2023-06-10T03:50:09;19.40;96.40
25214;DHT22;13160;51.834;4.706;2023-06-10T03:52:39;19.40;96.40
25214;DHT22;13160;51.834;4.706;2023-06-10T03:55:08;19.30;96.50
25214;DHT22;13160;51.834;4.706;2023-06-10T03:57:38;19.30;96.50
25214;DHT22;13160;51.834;4.706;2023-06-10T04:00:08;19.30;96.50
25214;DHT22;13160;51.834;4.706;2023-06-10T04:02:38;19.30;96.60
25214;DHT22;13160;51.834;4.706;2023-06-10T04:05:13;19.30;96.60
25214;DHT22;13160;51.834;4.706;2023-06-10T04:07:43;19.30;96.70
25214;DHT22;13160;51.834;4.706;2023-06-10T04:10:12;19.30;96.70
25214;DHT22;13160;51.834;4.706;2023-06-10T04:12:41;19.30;96.70
25214;DHT22;13160;51.834;4.706;2023-06-10T04:15:10;19.20;96.80
25214;DHT22;13160;51.834;4.706;2023-06-10T04:17:40;19.20;96.80
25214;DHT22;13160;51.834;4.706;2023-06-10T04:20:10;19.20;96.90
25214;DHT22;13160;51.834;4.706;2023-06-10T04:22:39;19.20;96.90
25214;DHT22;13160;51.834;4.706;2023-06-10T04:25:09;19.20;96.90
25214;DHT22;13160;51.834;4.706;2023-06-10T04:27:38;19.20;96.90
25214;DHT22;13160;51.834;4.706;2023-06-10T04:30:08;19.10;96.90
25214;DHT22;13160;51.834;4.706;2023-06-10T04:32:40;19.20;97.00
25214;DHT22;13160;51.834;4.706;2023-06-10T04:35:11;19.20;97.10
25214;DHT22;13160;51.834;4.706;2023-06-10T04:37:40;19.20;97.00
25214;DHT22;13160;51.834;4.706;2023-06-10T04:40:11;19.20;97.10
25214;DHT22;13160;51.834;4.706;2023-06-10T04:42:40;19.20;97.10
25214;DHT22;13160;51.834;4.706;2023-06-10T04:45:09;19.20;97.10
25214;DHT22;13160;51.834;4.706;2023-06-10T04:47:38;19.20;97.10
25214;DHT22;13160;51.834;4.706;2023-06-10T04:50:07;19.20;97.10
25214;DHT22;13160;51.834;4.706;2023-06-10T04:52:36;19.20;97.10
25214;DHT22;13160;51.834;4.706;2023-06-10T04:55:05;19.20;97.20
25214;DHT22;13160;51.834;4.706;2023-06-10T04:57:37;19.20;97.20
25214;DHT22;13160;51.834;4.706;2023-06-10T05:00:07;19.20;97.30
25214;DHT22;13160;51.834;4.706;2023-06-10T05:02:36;19.20;97.30
25214;DHT22;13160;51.834;4.706;2023-06-10T05:05:05;19.20;97.30
25214;DHT22;13160;51.834;4.706;2023-06-10T05:07:35;19.30;97.40
25214;DHT22;13160;51.834;4.706;2023-06-10T05:10:04;19.30;97.50
25214;DHT22;13160;51.834;4.706;2023-06-10T05:12:33;19.30;97.50
25214;DHT22;13160;51.834;4.706;2023-06-10T05:15:04;19.40;97.60
25214;DHT22;13160;51.834;4.706;2023-06-10T05:17:34;19.30;97.70
25214;DHT22;13160;51.834;4.706;2023-06-10T05:20:03;19.40;97.80
25214;DHT22;13160;51.834;4.706;2023-06-10T05:22:32;19.40;97.80
25214;DHT22;13160;51.834;4.706;2023-06-10T05:25:01;19.40;97.90
25214;DHT22;13160;51.834;4.706;2023-06-10T05:27:29;19.50;97.90
25214;DHT22;13160;51.834;4.706;2023-06-10T05:29:58;19.50;98.00
25214;DHT22;13160;51.834;4.706;2023-06-10T05:32:28;19.60;98.00
25214;DHT22;13160;51.834;4.706;2023-06-10T05:34:57;19.60;98.00
25214;DHT22;13160;51.834;4.706;2023-06-10T05:37:27;19.60;98.00
25214;DHT22;13160;51.834;4.706;2023-06-10T05:39:55;19.70;98.20
25214;DHT22;13160;51.834;4.706;2023-06-10T05:42:24;19.70;98.20
25214;DHT22;13160;51.834;4.706;2023-06-10T05:44:54;19.80;98.30
25214;DHT22;13160;51.834;4.706;2023-06-10T05:47:22;19.80;98.30
25214;DHT22;13160;51.834;4.706;2023-06-10T05:49:53;19.80;98.30
25214;DHT22;13160;51.834;4.706;2023-06-10T05:52:22;19.90;98.40
25214;DHT22;13160;51.834;4.706;2023-06-10T05:54:50;19.90;98.40
25214;DHT22;13160;51.834;4.706;2023-06-10T05:57:19;20.00;98.40
25214;DHT22;13160;51.834;4.706;2023-06-10T05:59:48;20.00;98.40
25214;DHT22;13160;51.834;4.706;2023-06-10T06:02:16;20.10;98.40
25214;DHT22;13160;51.834;4.706;2023-06-10T06:04:45;20.20;98.40
25214;DHT22;13160;51.834;4.706;2023-06-10T06:07:15;20.20;98.30
25214;DHT22;13160;51.834;4.706;2023-06-10T06:09:43;20.30;98.30
25214;DHT22;13160;51.834;4.706;2023-06-10T06:12:12;20.30;98.30
25214;DHT22;13160;51.834;4.706;2023-06-10T06:14:40;20.40;98.20
25214;DHT22;13160;51.834;4.706;2023-06-10T06:17:09;20.40;98.20
25214;DHT22;13160;51.834;4.706;2023-06-10T06:19:37;20.50;98.20
25214;DHT22;13160;51.834;4.706;2023-06-10T06:22:06;20.60;98.20
25214;DHT22;13160;51.834;4.706;2023-06-10T06:24:35;20.60;98.20
25214;DHT22;13160;51.834;4.706;2023-06-10T06:27:05;20.70;98.10
25214;DHT22;13160;51.834;4.706;2023-06-10T06:29:34;20.90;98.10
25214;DHT22;13160;51.834;4.706;2023-06-10T06:32:03;21.10;98.00
25214;DHT22;13160;51.834;4.706;2023-06-10T06:34:32;21.60;97.60
25214;DHT22;13160;51.834;4.706;2023-06-10T06:37:01;22.20;96.90
25214;DHT22;13160;51.834;4.706;2023-06-10T06:39:29;23.00;95.50
25214;DHT22;13160;51.834;4.706;2023-06-10T06:41:59;23.80;94.50
25214;DHT22;13160;51.834;4.706;2023-06-10T06:44:28;24.60;93.30
25214;DHT22;13160;51.834;4.706;2023-06-10T06:47:02;25.40;92.20
25214;DHT22;13160;51.834;4.706;2023-06-10T06:49:37;26.10;91.20
25214;DHT22;13160;51.834;4.706;2023-06-10T06:52:06;26.80;89.90
25214;DHT22;13160;51.834;4.706;2023-06-10T06:54:35;27.30;87.30
25214;DHT22;13160;51.834;4.706;2023-06-10T06:57:08;27.60;85.60
25214;DHT22;13160;51.834;4.706;2023-06-10T06:59:52;28.00;84.10
25214;DHT22;13160;51.834;4.706;2023-06-10T07:02:23;28.40;82.00
25214;DHT22;13160;51.834;4.706;2023-06-10T07:04:52;28.90;80.50
25214;DHT22;13160;51.834;4.706;2023-06-10T07:07:25;29.30;79.20
25214;DHT22;13160;51.834;4.706;2023-06-10T07:09:57;29.70;77.30
25214;DHT22;13160;51.834;4.706;2023-06-10T07:12:27;30.00;75.80
25214;DHT22;13160;51.834;4.706;2023-06-10T07:14:56;30.20;74.10
25214;DHT22;13160;51.834;4.706;2023-06-10T07:17:25;30.40;73.50
25214;DHT22;13160;51.834;4.706;2023-06-10T07:19:54;30.60;72.80
25214;DHT22;13160;51.834;4.706;2023-06-10T07:22:24;30.80;71.90
25214;DHT22;13160;51.834;4.706;2023-06-10T07:24:56;31.00;71.40
25214;DHT22;13160;51.834;4.706;2023-06-10T07:27:27;31.30;70.30
25214;DHT22;13160;51.834;4.706;2023-06-10T07:29:55;31.40;69.40
25214;DHT22;13160;51.834;4.706;2023-06-10T07:32:27;31.60;69.10
25214;DHT22;13160;51.834;4.706;2023-06-10T07:35:06;31.80;68.10
25214;DHT22;13160;51.834;4.706;2023-06-10T07:37:39;31.90;67.00
25214;DHT22;13160;51.834;4.706;2023-06-10T07:40:09;32.00;66.80
25214;DHT22;13160;51.834;4.706;2023-06-10T07:42:39;32.00;66.60
25214;DHT22;13160;51.834;4.706;2023-06-10T07:45:10;32.10;65.70
25214;DHT22;13160;51.834;4.706;2023-06-10T07:47:38;32.30;65.50
25214;DHT22;13160;51.834;4.706;2023-06-10T07:50:09;32.40;65.30
25214;DHT22;13160;51.834;4.706;2023-06-10T07:52:38;32.60;65.00
25214;DHT22;13160;51.834;4.706;2023-06-10T07:55:07;32.60;63.70
25214;DHT22;13160;51.834;4.706;2023-06-10T07:57:38;32.70;63.50
25214;DHT22;13160;51.834;4.706;2023-06-10T08:00:08;32.80;63.30
25214;DHT22;13160;51.834;4.706;2023-06-10T08:02:38;32.80;63.20
25214;DHT22;13160;51.834;4.706;2023-06-10T08:05:07;32.80;62.80
25214;DHT22;13160;51.834;4.706;2023-06-10T08:07:37;32.80;62.30
25214;DHT22;13160;51.834;4.706;2023-06-10T08:10:06;32.80;61.80
25214;DHT22;13160;51.834;4.706;2023-06-10T08:12:36;32.80;62.10
25214;DHT22;13160;51.834;4.706;2023-06-10T08:15:08;32.80;62.10
25214;DHT22;13160;51.834;4.706;2023-06-10T08:17:37;32.90;61.70
25214;DHT22;13160;51.834;4.706;2023-06-10T08:20:07;33.00;60.70
25214;DHT22;13160;51.834;4.706;2023-06-10T08:22:36;33.20;60.30
25214;DHT22;13160;51.834;4.706;2023-06-10T08:25:05;33.20;59.90
25214;DHT22;13160;51.834;4.706;2023-06-10T08:27:35;33.20;59.90
25214;DHT22;13160;51.834;4.706;2023-06-10T08:30:06;33.40;60.10
25214;DHT22;13160;51.834;4.706;2023-06-10T08:32:37;33.40;59.70
25214;DHT22;13160;51.834;4.706;2023-06-10T08:35:06;33.30;59.50
25214;DHT22;13160;51.834;4.706;2023-06-10T08:37:36;33.30;59.70
25214;DHT22;13160;51.834;4.706;2023-06-10T08:40:05;33.20;59.20
25214;DHT22;13160;51.834;4.706;2023-06-10T08:42:39;33.30;59.40
25214;DHT22;13160;51.834;4.706;2023-06-10T08:45:17;33.30;58.90
25214;DHT22;13160;51.834;4.706;2023-06-10T08:47:49;33.20;58.80
25214;DHT22;13160;51.834;4.706;2023-06-10T08:50:19;33.20;59.00
25214;DHT22;13160;51.834;4.706;2023-06-10T08:52:52;33.10;58.90
25214;DHT22;13160;51.834;4.706;2023-06-10T08:55:26;33.00;58.50
25214;DHT22;13160;51.834;4.706;2023-06-10T08:57:59;33.10;58.70
25214;DHT22;13160;51.834;4.706;2023-06-10T09:00:30;33.00;58.10
25214;DHT22;13160;51.834;4.706;2023-06-10T09:02:59;32.90;57.90
25214;DHT22;13160;51.834;4.706;2023-06-10T09:05:33;32.80;57.80
25214;DHT22;13160;51.834;4.706;2023-06-10T09:08:04;32.70;57.70
25214;DHT22;13160;51.834;4.706;2023-06-10T09:10:33;32.60;57.60
25214;DHT22;13160;51.834;4.706;2023-06-10T09:13:01;32.60;57.30
25214;DHT22;13160;51.834;4.706;2023-06-10T09:15:32;32.50;57.50
25214;DHT22;13160;51.834;4.706;2023-06-10T09:18:00;32.40;57.80
25214;DHT22;13160;51.834;4.706;2023-06-10T09:20:29;32.30;57.80
25214;DHT22;13160;51.834;4.706;2023-06-10T09:22:59;32.30;57.90
25214;DHT22;13160;51.834;4.706;2023-06-10T09:25:35;32.40;57.80
25214;DHT22;13160;51.834;4.706;2023-06-10T09:28:05;32.40;57.00
25214;DHT22;13160;51.834;4.706;2023-06-10T09:30:42;32.40;57.50
25214;DHT22;13160;51.834;4.706;2023-06-10T09:33:12;32.40;57.20
25214;DHT22;13160;51.834;4.706;2023-06-10T09:35:47;32.40;57.10
25214;DHT22;13160;51.834;4.706;2023-06-10T09:38:20;32.30;57.30
25214;DHT22;13160;51.834;4.706;2023-06-10T09:40:50;32.30;57.30
25214;DHT22;13160;51.834;4.706;2023-06-10T09:43:19;32.30;57.70
25214;DHT22;13160;51.834;4.706;2023-06-10T09:45:50;32.30;57.60
25214;DHT22;13160;51.834;4.706;2023-06-10T09:48:20;32.40;57.00
25214;DHT22;13160;51.834;4.706;2023-06-10T09:50:50;32.30;57.40
25214;DHT22;13160;51.834;4.706;2023-06-10T09:53:20;32.30;57.30
25214;DHT22;13160;51.834;4.706;2023-06-10T09:55:49;32.20;56.90
25214;DHT22;13160;51.834;4.706;2023-06-10T09:58:18;32.20;57.80
25214;DHT22;13160;51.834;4.706;2023-06-10T10:00:52;32.10;57.50
25214;DHT22;13160;51.834;4.706;2023-06-10T10:03:22;32.10;56.80
25214;DHT22;13160;51.834;4.706;2023-06-10T10:05:58;32.10;56.30
25214;DHT22;13160;51.834;4.706;2023-06-10T10:08:27;32.10;56.20
25214;DHT22;13160;51.834;4.706;2023-06-10T10:10:57;32.00;56.20
25214;DHT22;13160;51.834;4.706;2023-06-10T10:13:26;32.00;56.10
25214;DHT22;13160;51.834;4.706;2023-06-10T10:16:00;32.00;56.40
25214;DHT22;13160;51.834;4.706;2023-06-10T10:18:32;32.00;56.50
25214;DHT22;13160;51.834;4.706;2023-06-10T10:21:08;32.00;57.00
25214;DHT22;13160;51.834;4.706;2023-06-10T10:23:47;32.10;57.00
25214;DHT22;13160;51.834;4.706;2023-06-10T10:26:26;32.10;57.20
25214;DHT22;13160;51.834;4.706;2023-06-10T10:29:03;32.20;56.70
25214;DHT22;13160;51.834;4.706;2023-06-10T10:31:38;32.20;56.90
25214;DHT22;13160;51.834;4.706;2023-06-10T10:34:12;32.30;56.80
25214;DHT22;13160;51.834;4.706;2023-06-10T10:36:42;32.30;57.20
25214;DHT22;13160;51.834;4.706;2023-06-10T10:39:12;32.40;57.60
25214;DHT22;13160;51.834;4.706;2023-06-10T10:41:46;32.30;57.10
25214;DHT22;13160;51.834;4.706;2023-06-10T10:44:17;32.40;56.80
25214;DHT22;13160;51.834;4.706;2023-06-10T10:46:52;32.40;56.60
25214;DHT22;13160;51.834;4.706;2023-06-10T10:49:22;32.40;56.70
25214;DHT22;13160;51.834;4.706;2023-06-10T10:51:56;32.50;56.30
25214;DHT22;13160;51.834;4.706;2023-06-10T10:54:29;32.50;56.30
25214;DHT22;13160;51.834;4.706;2023-06-10T10:57:15;32.50;56.10
25214;DHT22;13160;51.834;4.706;2023-06-10T10:59:51;32.60;55.80
25214;DHT22;13160;51.834;4.706;2023-06-10T11:02:40;32.60;56.00
25214;DHT22;13160;51.834;4.706;2023-06-10T11:05:13;32.70;55.70
25214;DHT22;13160;51.834;4.706;2023-06-10T11:07:52;32.80;55.40
25214;DHT22;13160;51.834;4.706;2023-06-10T11:10:29;32.80;54.60
25214;DHT22;13160;51.834;4.706;2023-06-10T11:12:59;32.80;53.90
25214;DHT22;13160;51.834;4.706;2023-06-10T11:15:29;32.90;53.80
25214;DHT22;13160;51.834;4.706;2023-06-10T11:18:21;32.90;53.30
25214;DHT22;13160;51.834;4.706;2023-06-10T11:20:55;32.90;53.10
25214;DHT22;13160;51.834;4.706;2023-06-10T11:23:39;32.90;52.70
25214;DHT22;13160;51.834;4.706;2023-06-10T11:26:13;32.90;52.50
25214;DHT22;13160;51.834;4.706;2023-06-10T11:29:03;32.90;52.50
25214;DHT22;13160;51.834;4.706;2023-06-10T11:31:42;33.00;52.60
25214;DHT22;13160;51.834;4.706;2023-06-10T11:34:25;33.00;51.90
25214;DHT22;13160;51.834;4.706;2023-06-10T11:36:54;33.10;51.90
25214;DHT22;13160;51.834;4.706;2023-06-10T11:39:24;33.10;51.50
25214;DHT22;13160;51.834;4.706;2023-06-10T11:41:53;33.20;51.10
25214;DHT22;13160;51.834;4.706;2023-06-10T11:44:28;33.30;51.20
25214;DHT22;13160;51.834;4.706;2023-06-10T11:46:59;33.40;50.80
25214;DHT22;13160;51.834;4.706;2023-06-10T11:49:29;33.40;51.20
25214;DHT22;13160;51.834;4.706;2023-06-10T11:51:57;33.40;50.80
25214;DHT22;13160;51.834;4.706;2023-06-10T11:54:29;33.40;50.60
25214;DHT22;13160;51.834;4.706;2023-06-10T11:56:58;33.50;50.60
25214;DHT22;13160;51.834;4.706;2023-06-10T11:59:27;33.50;50.20
25214;DHT22;13160;51.834;4.706;2023-06-10T12:01:56;33.50;50.60
25214;DHT22;13160;51.834;4.706;2023-06-10T12:04:25;33.60;50.60
25214;DHT22;13160;51.834;4.706;2023-06-10T12:06:55;33.70;50.00
25214;DHT22;13160;51.834;4.706;2023-06-10T12:09:25;33.70;50.00
25214;DHT22;13160;51.834;4.706;2023-06-10T12:11:57;33.80;49.40
25214;DHT22;13160;51.834;4.706;2023-06-10T12:14:53;33.90;49.50
25214;DHT22;13160;51.834;4.706;2023-06-10T12:17:35;33.90;50.00
25214;DHT22;13160;51.834;4.706;2023-06-10T12:20:07;33.90;49.20
25214;DHT22;13160;51.834;4.706;2023-06-10T12:22:41;33.80;49.50
25214;DHT22;13160;51.834;4.706;2023-06-10T12:25:11;33.80;49.70
25214;DHT22;13160;51.834;4.706;2023-06-10T12:27:50;33.70;49.20
25214;DHT22;13160;51.834;4.706;2023-06-10T12:30:20;33.70;48.80
25214;DHT22;13160;51.834;4.706;2023-06-10T12:32:50;33.70;48.70
25214;DHT22;13160;51.834;4.706;2023-06-10T12:35:21;33.60;49.10
25214;DHT22;13160;51.834;4.706;2023-06-10T12:37:57;33.60;48.70
25214;DHT22;13160;51.834;4.706;2023-06-10T12:40:30;33.70;49.10
25214;DHT22;13160;51.834;4.706;2023-06-10T12:42:59;33.70;49.40
25214;DHT22;13160;51.834;4.706;2023-06-10T12:45:29;33.70;49.50
25214;DHT22;13160;51.834;4.706;2023-06-10T12:48:06;33.70;48.90
25214;DHT22;13160;51.834;4.706;2023-06-10T12:50:37;33.80;48.80
25214;DHT22;13160;51.834;4.706;2023-06-10T12:53:08;33.80;48.70
25214;DHT22;13160;51.834;4.706;2023-06-10T12:55:39;33.80;48.50
25214;DHT22;13160;51.834;4.706;2023-06-10T12:58:08;33.90;48.70
25214;DHT22;13160;51.834;4.706;2023-06-10T13:00:38;34.00;48.70
25214;DHT22;13160;51.834;4.706;2023-06-10T13:03:07;34.00;48.90
25214;DHT22;13160;51.834;4.706;2023-06-10T13:05:37;34.10;48.60
25214;DHT22;13160;51.834;4.706;2023-06-10T13:08:08;34.20;47.60
25214;DHT22;13160;51.834;4.706;2023-06-10T13:10:37;34.20;47.00
25214;DHT22;13160;51.834;4.706;2023-06-10T13:13:05;34.10;46.80
25214;DHT22;13160;51.834;4.706;2023-06-10T13:15:36;34.20;46.80
25214;DHT22;13160;51.834;4.706;2023-06-10T13:18:10;34.20;47.00
25214;DHT22;13160;51.834;4.706;2023-06-10T13:20:39;34.20;47.30
25214;DHT22;13160;51.834;4.706;2023-06-10T13:23:09;34.30;46.90
25214;DHT22;13160;51.834;4.706;2023-06-10T13:25:38;34.30;46.80
25214;DHT22;13160;51.834;4.706;2023-06-10T13:28:08;34.30;46.90
25214;DHT22;13160;51.834;4.706;2023-06-10T13:30:36;34.30;47.00
25214;DHT22;13160;51.834;4.706;2023-06-10T13:33:05;34.30;47.00
25214;DHT22;13160;51.834;4.706;2023-06-10T13:35:33;34.30;46.90
25214;DHT22;13160;51.834;4.706;2023-06-10T13:38:02;34.40;46.30
25214;DHT22;13160;51.834;4.706;2023-06-10T13:40:32;34.30;46.30
25214;DHT22;13160;51.834;4.706;2023-06-10T13:43:00;34.30;46.50
25214;DHT22;13160;51.834;4.706;2023-06-10T13:45:29;34.30;46.80
25214;DHT22;13160;51.834;4.706;2023-06-10T13:47:58;34.20;47.00
25214;DHT22;13160;51.834;4.706;2023-06-10T13:50:27;34.20;46.60
25214;DHT22;13160;51.834;4.706;2023-06-10T13:52:55;34.20;47.00
25214;DHT22;13160;51.834;4.706;2023-06-10T13:55:23;34.20;47.10
25214;DHT22;13160;51.834;4.706;2023-06-10T13:57:54;34.20;47.10
25214;DHT22;13160;51.834;4.706;2023-06-10T14:00:23;34.20;47.40
25214;DHT22;13160;51.834;4.706;2023-06-10T14:02:51;34.10;46.90
25214;DHT22;13160;51.834;4.706;2023-06-10T14:05:20;34.00;46.60
25214;DHT22;13160;51.834;4.706;2023-06-10T14:07:50;33.90;46.60
25214;DHT22;13160;51.834;4.706;2023-06-10T14:10:19;33.90;46.80
25214;DHT22;13160;51.834;4.706;2023-06-10T14:12:49;33.90;47.30
25214;DHT22;13160;51.834;4.706;2023-06-10T14:15:20;33.90;47.20
25214;DHT22;13160;51.834;4.706;2023-06-10T14:17:48;33.80;46.70
25214;DHT22;13160;51.834;4.706;2023-06-10T14:20:17;33.70;46.60
25214;DHT22;13160;51.834;4.706;2023-06-10T14:22:46;33.60;47.40
25214;DHT22;13160;51.834;4.706;2023-06-10T14:25:14;33.60;47.70
25214;DHT22;13160;51.834;4.706;2023-06-10T14:27:43;33.60;47.10
25214;DHT22;13160;51.834;4.706;2023-06-10T14:30:14;33.60;47.10
25214;DHT22;13160;51.834;4.706;2023-06-10T14:32:44;33.60;46.80
25214;DHT22;13160;51.834;4.706;2023-06-10T14:35:12;33.60;46.70
25214;DHT22;13160;51.834;4.706;2023-06-10T14:37:41;33.50;46.80
25214;DHT22;13160;51.834;4.706;2023-06-10T14:40:10;33.50;47.00
25214;DHT22;13160;51.834;4.706;2023-06-10T14:42:39;33.50;47.30
25214;DHT22;13160;51.834;4.706;2023-06-10T14:45:08;33.50;47.30
25214;DHT22;13160;51.834;4.706;2023-06-10T14:47:38;33.40;47.80
25214;DHT22;13160;51.834;4.706;2023-06-10T14:50:09;33.40;47.80
25214;DHT22;13160;51.834;4.706;2023-06-10T14:52:37;33.30;47.10
25214;DHT22;13160;51.834;4.706;2023-06-10T14:55:07;33.20;47.40
25214;DHT22;13160;51.834;4.706;2023-06-10T14:57:37;33.20;47.40
25214;DHT22;13160;51.834;4.706;2023-06-10T15:00:06;33.20;47.50
25214;DHT22;13160;51.834;4.706;2023-06-10T15:02:36;33.10;47.20
25214;DHT22;13160;51.834;4.706;2023-06-10T15:05:04;33.00;47.00
25214;DHT22;13160;51.834;4.706;2023-06-10T15:07:35;32.90;47.00
25214;DHT22;13160;51.834;4.706;2023-06-10T15:10:05;32.80;47.20
25214;DHT22;13160;51.834;4.706;2023-06-10T15:12:34;32.80;47.00
25214;DHT22;13160;51.834;4.706;2023-06-10T15:15:03;32.70;47.30
25214;DHT22;13160;51.834;4.706;2023-06-10T15:17:32;32.70;47.90
25214;DHT22;13160;51.834;4.706;2023-06-10T15:20:01;32.60;48.00
25214;DHT22;13160;51.834;4.706;2023-06-10T15:22:29;32.70;48.20
25214;DHT22;13160;51.834;4.706;2023-06-10T15:25:04;32.60;48.10
25214;DHT22;13160;51.834;4.706;2023-06-10T15:27:53;32.60;47.70
25214;DHT22;13160;51.834;4.706;2023-06-10T15:30:22;32.60;47.80
25214;DHT22;13160;51.834;4.706;2023-06-10T15:32:50;32.50;47.90
25214;DHT22;13160;51.834;4.706;2023-06-10T15:35:19;32.50;48.00
25214;DHT22;13160;51.834;4.706;2023-06-10T15:37:48;32.40;48.30
25214;DHT22;13160;51.834;4.706;2023-06-10T15:40:19;32.40;48.90
25214;DHT22;13160;51.834;4.706;2023-06-10T15:42:47;32.40;49.00
25214;DHT22;13160;51.834;4.706;2023-06-10T15:45:16;32.30;48.70
25214;DHT22;13160;51.834;4.706;2023-06-10T15:47:45;32.30;48.90
25214;DHT22;13160;51.834;4.706;2023-06-10T15:50:13;32.30;48.70